Terminal Aerodrome Forecast
Issued by NWS

Home | Current Version | Previous Version | Text Only | Print | Product List | Glossary On
Versions: 1 2 3 4 5 6 7 8 9 10 11 12 13 14 15 16 17 18 19 20
107
FTUS44 KTSA 191916 AAA
TAFMLC
TAF AMD
KMLC 191916Z 1919/2018 17008KT P6SM OVC015
     FM200700 18006KT 4SM BR OVC003
     FM201600 19012KT P6SM BKN020=

USA.gov is the U.S. government's official web portal to all federal, state and local government web resources and services.